sensor_id;sensor_type;location;lat;lon;timestamp;P1;P2;P0
71858;PMS5003;59713;50.866;4.324;2023-12-04T00:00:12;15;15;
71858;PMS5003;59713;50.866;4.324;2023-12-04T00:01:12;15;15;
71858;PMS5003;59713;50.866;4.324;2023-12-04T00:02:12;22;18;
71858;PMS5003;59713;50.866;4.324;2023-12-04T00:03:12;22;18;
71858;PMS5003;59713;50.866;4.324;2023-12-04T00:04:12;22;18;
71858;PMS5003;59713;50.866;4.324;2023-12-04T00:05:12;15;13;
71858;PMS5003;59713;50.866;4.324;2023-12-04T00:05:12;15;13;
71858;PMS5003;59713;50.866;4.324;2023-12-04T00:06:12;15;13;
71858;PMS5003;59713;50.866;4.324;2023-12-04T00:07:12;15;13;
71858;PMS5003;59713;50.866;4.324;2023-12-04T00:08:12;19;17;
71858;PMS5003;59713;50.866;4.324;2023-12-04T00:09:12;19;17;
71858;PMS5003;59713;50.866;4.324;2023-12-04T00:10:12;19;17;
71858;PMS5003;59713;50.866;4.324;2023-12-04T00:11:12;15;14;
71858;PMS5003;59713;50.866;4.324;2023-12-04T00:12:12;15;14;
71858;PMS5003;59713;50.866;4.324;2023-12-04T00:13:12;15;14;
71858;PMS5003;59713;50.866;4.324;2023-12-04T00:14:12;21;16;
71858;PMS5003;59713;50.866;4.324;2023-12-04T00:15:12;21;16;
71858;PMS5003;59713;50.866;4.324;2023-12-04T00:15:12;21;16;
71858;PMS5003;59713;50.866;4.324;2023-12-04T00:16:12;21;16;
71858;PMS5003;59713;50.866;4.324;2023-12-04T00:17:12;20;17;
71858;PMS5003;59713;50.866;4.324;2023-12-04T00:18:12;20;17;
71858;PMS5003;59713;50.866;4.324;2023-12-04T00:19:12;20;17;
71858;PMS5003;59713;50.866;4.324;2023-12-04T00:20:13;18;16;
71858;PMS5003;59713;50.866;4.324;2023-12-04T00:21:12;18;16;
71858;PMS5003;59713;50.866;4.324;2023-12-04T00:22:12;18;16;
71858;PMS5003;59713;50.866;4.324;2023-12-04T00:23:12;14;14;
71858;PMS5003;59713;50.866;4.324;2023-12-04T00:24:12;14;14;
71858;PMS5003;59713;50.866;4.324;2023-12-04T00:24:12;14;14;
71858;PMS5003;59713;50.866;4.324;2023-12-04T00:25:12;14;14;
71858;PMS5003;59713;50.866;4.324;2023-12-04T00:26:12;7;6;
71858;PMS5003;59713;50.866;4.324;2023-12-04T00:27:12;7;6;
71858;PMS5003;59713;50.866;4.324;2023-12-04T00:28:12;7;6;
71858;PMS5003;59713;50.866;4.324;2023-12-04T00:29:12;16;13;
71858;PMS5003;59713;50.866;4.324;2023-12-04T00:30:13;16;13;
71858;PMS5003;59713;50.866;4.324;2023-12-04T00:31:12;16;13;
71858;PMS5003;59713;50.866;4.324;2023-12-04T00:32:13;13;12;
71858;PMS5003;59713;50.866;4.324;2023-12-04T00:33:12;13;12;
71858;PMS5003;59713;50.866;4.324;2023-12-04T00:33:12;13;12;
71858;PMS5003;59713;50.866;4.324;2023-12-04T00:34:12;13;12;
71858;PMS5003;59713;50.866;4.324;2023-12-04T00:35:12;20;19;
71858;PMS5003;59713;50.866;4.324;2023-12-04T00:36:12;20;19;
71858;PMS5003;59713;50.866;4.324;2023-12-04T00:37:12;20;19;
71858;PMS5003;59713;50.866;4.324;2023-12-04T00:38:12;19;15;
71858;PMS5003;59713;50.866;4.324;2023-12-04T00:39:12;19;15;
71858;PMS5003;59713;50.866;4.324;2023-12-04T00:40:12;19;15;
71858;PMS5003;59713;50.866;4.324;2023-12-04T00:41:12;16;14;
71858;PMS5003;59713;50.866;4.324;2023-12-04T00:42:12;16;14;
71858;PMS5003;59713;50.866;4.324;2023-12-04T00:43:12;16;14;
71858;PMS5003;59713;50.866;4.324;2023-12-04T00:43:12;16;14;
71858;PMS5003;59713;50.866;4.324;2023-12-04T00:44:12;18;14;
71858;PMS5003;59713;50.866;4.324;2023-12-04T00:45:12;18;14;
71858;PMS5003;59713;50.866;4.324;2023-12-04T00:46:12;18;14;
71858;PMS5003;59713;50.866;4.324;2023-12-04T00:47:12;18;13;
71858;PMS5003;59713;50.866;4.324;2023-12-04T00:48:12;18;13;
71858;PMS5003;59713;50.866;4.324;2023-12-04T00:49:12;18;13;
71858;PMS5003;59713;50.866;4.324;2023-12-04T00:50:12;14;12;
71858;PMS5003;59713;50.866;4.324;2023-12-04T00:51:12;14;12;
71858;PMS5003;59713;50.866;4.324;2023-12-04T00:52:12;14;12;
71858;PMS5003;59713;50.866;4.324;2023-12-04T00:52:12;14;12;
71858;PMS5003;59713;50.866;4.324;2023-12-04T00:53:12;13;13;
71858;PMS5003;59713;50.866;4.324;2023-12-04T00:54:12;13;13;
71858;PMS5003;59713;50.866;4.324;2023-12-04T00:55:12;13;13;
71858;PMS5003;59713;50.866;4.324;2023-12-04T00:56:12;14;13;
71858;PMS5003;59713;50.866;4.324;2023-12-04T00:57:12;14;13;
71858;PMS5003;59713;50.866;4.324;2023-12-04T00:58:12;14;13;
71858;PMS5003;59713;50.866;4.324;2023-12-04T00:59:12;16;15;
71858;PMS5003;59713;50.866;4.324;2023-12-04T01:00:13;16;15;
71858;PMS5003;59713;50.866;4.324;2023-12-04T01:21:12;13;12;
71858;PMS5003;59713;50.866;4.324;2023-12-04T01:22:12;13;12;
71858;PMS5003;59713;50.866;4.324;2023-12-04T01:23:12;15;14;
71858;PMS5003;59713;50.866;4.324;2023-12-04T01:24:13;15;14;
71858;PMS5003;59713;50.866;4.324;2023-12-04T01:25:12;15;14;
71858;PMS5003;59713;50.866;4.324;2023-12-04T01:26:12;14;14;
71858;PMS5003;59713;50.866;4.324;2023-12-04T01:27:12;14;14;
71858;PMS5003;59713;50.866;4.324;2023-12-04T01:28:12;14;14;
71858;PMS5003;59713;50.866;4.324;2023-12-04T01:28:12;14;14;
71858;PMS5003;59713;50.866;4.324;2023-12-04T01:29:12;17;12;
71858;PMS5003;59713;50.866;4.324;2023-12-04T01:30:12;17;12;
71858;PMS5003;59713;50.866;4.324;2023-12-04T01:31:12;17;12;
71858;PMS5003;59713;50.866;4.324;2023-12-04T01:32:12;12;12;
71858;PMS5003;59713;50.866;4.324;2023-12-04T01:33:12;12;12;
71858;PMS5003;59713;50.866;4.324;2023-12-04T01:34:12;12;12;
71858;PMS5003;59713;50.866;4.324;2023-12-04T01:35:12;13;13;
71858;PMS5003;59713;50.866;4.324;2023-12-04T01:36:12;13;13;
71858;PMS5003;59713;50.866;4.324;2023-12-04T01:37:12;13;13;
71858;PMS5003;59713;50.866;4.324;2023-12-04T01:37:12;13;13;
71858;PMS5003;59713;50.866;4.324;2023-12-04T01:38:12;13;11;
71858;PMS5003;59713;50.866;4.324;2023-12-04T01:39:12;13;11;
71858;PMS5003;59713;50.866;4.324;2023-12-04T01:40:14;13;11;
71858;PMS5003;59713;50.866;4.324;2023-12-04T01:41:12;13;10;
71858;PMS5003;59713;50.866;4.324;2023-12-04T01:42:12;13;10;
71858;PMS5003;59713;50.866;4.324;2023-12-04T01:43:12;13;10;
71858;PMS5003;59713;50.866;4.324;2023-12-04T01:44:12;13;13;
71858;PMS5003;59713;50.866;4.324;2023-12-04T01:45:12;13;13;
71858;PMS5003;59713;50.866;4.324;2023-12-04T01:46:13;13;13;
71858;PMS5003;59713;50.866;4.324;2023-12-04T01:47:12;15;12;
71858;PMS5003;59713;50.866;4.324;2023-12-04T01:47:12;15;12;
71858;PMS5003;59713;50.866;4.324;2023-12-04T01:48:12;15;12;
71858;PMS5003;59713;50.866;4.324;2023-12-04T01:49:12;15;12;
71858;PMS5003;59713;50.866;4.324;2023-12-04T01:50:12;16;13;
71858;PMS5003;59713;50.866;4.324;2023-12-04T01:51:12;16;13;
71858;PMS5003;59713;50.866;4.324;2023-12-04T01:52:12;16;13;
71858;PMS5003;59713;50.866;4.324;2023-12-04T01:53:28;16;12;
71858;PMS5003;59713;50.866;4.324;2023-12-04T01:54:12;16;12;
71858;PMS5003;59713;50.866;4.324;2023-12-04T01:55:12;16;12;
71858;PMS5003;59713;50.866;4.324;2023-12-04T01:56:12;12;12;
71858;PMS5003;59713;50.866;4.324;2023-12-04T01:56:12;12;12;
71858;PMS5003;59713;50.866;4.324;2023-12-04T01:57:13;12;12;
71858;PMS5003;59713;50.866;4.324;2023-12-04T01:58:12;12;12;
71858;PMS5003;59713;50.866;4.324;2023-12-04T01:59:12;12;10;
71858;PMS5003;59713;50.866;4.324;2023-12-04T02:00:12;12;10;
71858;PMS5003;59713;50.866;4.324;2023-12-04T02:01:12;12;10;
71858;PMS5003;59713;50.866;4.324;2023-12-04T02:02:12;11;10;
71858;PMS5003;59713;50.866;4.324;2023-12-04T02:03:12;11;10;
71858;PMS5003;59713;50.866;4.324;2023-12-04T02:04:12;11;10;
71858;PMS5003;59713;50.866;4.324;2023-12-04T02:05:12;11;11;
71858;PMS5003;59713;50.866;4.324;2023-12-04T02:05:12;11;11;
71858;PMS5003;59713;50.866;4.324;2023-12-04T02:06:12;11;11;
71858;PMS5003;59713;50.866;4.324;2023-12-04T02:07:12;11;11;
71858;PMS5003;59713;50.866;4.324;2023-12-04T02:08:12;15;14;
71858;PMS5003;59713;50.866;4.324;2023-12-04T02:09:12;15;14;
71858;PMS5003;59713;50.866;4.324;2023-12-04T02:10:12;15;14;
71858;PMS5003;59713;50.866;4.324;2023-12-04T02:11:12;11;11;
71858;PMS5003;59713;50.866;4.324;2023-12-04T02:12:12;11;11;
71858;PMS5003;59713;50.866;4.324;2023-12-04T02:13:12;11;11;
71858;PMS5003;59713;50.866;4.324;2023-12-04T02:14:12;16;14;
71858;PMS5003;59713;50.866;4.324;2023-12-04T02:15:12;16;14;
71858;PMS5003;59713;50.866;4.324;2023-12-04T02:15:12;16;14;
71858;PMS5003;59713;50.866;4.324;2023-12-04T02:16:12;16;14;
71858;PMS5003;59713;50.866;4.324;2023-12-04T02:17:12;18;15;
71858;PMS5003;59713;50.866;4.324;2023-12-04T02:18:12;18;15;
71858;PMS5003;59713;50.866;4.324;2023-12-04T02:19:12;18;15;
71858;PMS5003;59713;50.866;4.324;2023-12-04T02:20:12;13;12;
71858;PMS5003;59713;50.866;4.324;2023-12-04T02:21:12;13;12;
71858;PMS5003;59713;50.866;4.324;2023-12-04T02:22:12;13;12;
71858;PMS5003;59713;50.866;4.324;2023-12-04T02:23:12;10;10;
71858;PMS5003;59713;50.866;4.324;2023-12-04T02:24:12;10;10;
71858;PMS5003;59713;50.866;4.324;2023-12-04T02:24:12;10;10;
71858;PMS5003;59713;50.866;4.324;2023-12-04T02:25:13;10;10;
71858;PMS5003;59713;50.866;4.324;2023-12-04T02:26:13;13;10;
71858;PMS5003;59713;50.866;4.324;2023-12-04T02:27:22;13;10;
71858;PMS5003;59713;50.866;4.324;2023-12-04T02:28:14;13;10;
71858;PMS5003;59713;50.866;4.324;2023-12-04T02:29:14;13;13;
71858;PMS5003;59713;50.866;4.324;2023-12-04T02:30:12;13;13;
71858;PMS5003;59713;50.866;4.324;2023-12-04T02:31:12;13;13;
71858;PMS5003;59713;50.866;4.324;2023-12-04T02:32:14;14;11;
71858;PMS5003;59713;50.866;4.324;2023-12-04T02:33:12;14;11;
71858;PMS5003;59713;50.866;4.324;2023-12-04T02:34:12;14;11;
71858;PMS5003;59713;50.866;4.324;2023-12-04T02:34:12;14;11;
71858;PMS5003;59713;50.866;4.324;2023-12-04T02:35:13;10;10;
71858;PMS5003;59713;50.866;4.324;2023-12-04T02:36:12;10;10;
71858;PMS5003;59713;50.866;4.324;2023-12-04T02:37:12;10;10;
71858;PMS5003;59713;50.866;4.324;2023-12-04T02:38:12;13;11;
71858;PMS5003;59713;50.866;4.324;2023-12-04T02:39:12;13;11;
71858;PMS5003;59713;50.866;4.324;2023-12-04T02:40:12;13;11;
71858;PMS5003;59713;50.866;4.324;2023-12-04T02:41:12;13;12;
71858;PMS5003;59713;50.866;4.324;2023-12-04T02:42:12;13;12;
71858;PMS5003;59713;50.866;4.324;2023-12-04T02:43:12;13;12;
71858;PMS5003;59713;50.866;4.324;2023-12-04T02:43:12;13;12;
71858;PMS5003;59713;50.866;4.324;2023-12-04T02:44:12;13;12;
71858;PMS5003;59713;50.866;4.324;2023-12-04T02:45:12;13;12;
71858;PMS5003;59713;50.866;4.324;2023-12-04T02:46:12;13;12;
71858;PMS5003;59713;50.866;4.324;2023-12-04T02:47:12;13;11;
71858;PMS5003;59713;50.866;4.324;2023-12-04T02:48:12;13;11;
71858;PMS5003;59713;50.866;4.324;2023-12-04T02:49:12;13;11;
71858;PMS5003;59713;50.866;4.324;2023-12-04T02:50:12;14;13;
71858;PMS5003;59713;50.866;4.324;2023-12-04T02:51:12;14;13;
71858;PMS5003;59713;50.866;4.324;2023-12-04T02:52:12;14;13;
71858;PMS5003;59713;50.866;4.324;2023-12-04T02:53:13;15;11;
71858;PMS5003;59713;50.866;4.324;2023-12-04T02:53:13;15;11;
71858;PMS5003;59713;50.866;4.324;2023-12-04T02:54:12;15;11;
71858;PMS5003;59713;50.866;4.324;2023-12-04T02:55:12;15;11;
71858;PMS5003;59713;50.866;4.324;2023-12-04T02:56:12;9;9;
71858;PMS5003;59713;50.866;4.324;2023-12-04T02:57:12;9;9;
71858;PMS5003;59713;50.866;4.324;2023-12-04T02:58:12;9;9;
71858;PMS5003;59713;50.866;4.324;2023-12-04T02:59:12;16;11;
71858;PMS5003;59713;50.866;4.324;2023-12-04T03:00:13;16;11;
71858;PMS5003;59713;50.866;4.324;2023-12-04T03:01:12;16;11;
71858;PMS5003;59713;50.866;4.324;2023-12-04T03:02:12;17;10;
71858;PMS5003;59713;50.866;4.324;2023-12-04T03:03:12;17;10;
71858;PMS5003;59713;50.866;4.324;2023-12-04T03:04:12;17;10;
71858;PMS5003;59713;50.866;4.324;2023-12-04T03:05:12;11;11;
71858;PMS5003;59713;50.866;4.324;2023-12-04T03:06:12;11;11;
71858;PMS5003;59713;50.866;4.324;2023-12-04T03:07:12;11;11;
71858;PMS5003;59713;50.866;4.324;2023-12-04T03:08:12;12;10;
71858;PMS5003;59713;50.866;4.324;2023-12-04T03:09:12;12;10;
71858;PMS5003;59713;50.866;4.324;2023-12-04T03:10:12;12;10;
71858;PMS5003;59713;50.866;4.324;2023-12-04T03:11:12;12;10;
71858;PMS5003;59713;50.866;4.324;2023-12-04T03:11:12;12;10;
71858;PMS5003;59713;50.866;4.324;2023-12-04T03:12:12;12;10;
71858;PMS5003;59713;50.866;4.324;2023-12-04T03:13:12;12;10;
71858;PMS5003;59713;50.866;4.324;2023-12-04T03:14:12;11;10;
71858;PMS5003;59713;50.866;4.324;2023-12-04T03:15:12;11;10;
71858;PMS5003;59713;50.866;4.324;2023-12-04T03:16:14;11;10;
71858;PMS5003;59713;50.866;4.324;2023-12-04T03:17:12;8;6;
71858;PMS5003;59713;50.866;4.324;2023-12-04T03:18:12;8;6;
71858;PMS5003;59713;50.866;4.324;2023-12-04T03:19:12;8;6;
71858;PMS5003;59713;50.866;4.324;2023-12-04T03:20:12;11;11;
71858;PMS5003;59713;50.866;4.324;2023-12-04T03:20:12;11;11;
71858;PMS5003;59713;50.866;4.324;2023-12-04T03:21:12;11;11;
71858;PMS5003;59713;50.866;4.324;2023-12-04T03:22:12;11;11;
71858;PMS5003;59713;50.866;4.324;2023-12-04T03:23:12;12;9;
71858;PMS5003;59713;50.866;4.324;2023-12-04T03:24:12;12;9;
71858;PMS5003;59713;50.866;4.324;2023-12-04T03:25:12;12;9;
71858;PMS5003;59713;50.866;4.324;2023-12-04T03:26:12;10;10;
71858;PMS5003;59713;50.866;4.324;2023-12-04T03:27:12;10;10;
71858;PMS5003;59713;50.866;4.324;2023-12-04T03:28:12;10;10;
71858;PMS5003;59713;50.866;4.324;2023-12-04T03:29:12;8;8;
71858;PMS5003;59713;50.866;4.324;2023-12-04T03:29:12;8;8;
71858;PMS5003;59713;50.866;4.324;2023-12-04T03:30:13;8;8;
71858;PMS5003;59713;50.866;4.324;2023-12-04T03:31:12;8;8;
71858;PMS5003;59713;50.866;4.324;2023-12-04T03:32:12;10;9;
71858;PMS5003;59713;50.866;4.324;2023-12-04T03:33:12;10;9;
71858;PMS5003;59713;50.866;4.324;2023-12-04T03:34:12;10;9;
71858;PMS5003;59713;50.866;4.324;2023-12-04T03:35:12;11;9;
71858;PMS5003;59713;50.866;4.324;2023-12-04T03:36:12;11;9;
71858;PMS5003;59713;50.866;4.324;2023-12-04T03:37:12;11;9;
71858;PMS5003;59713;50.866;4.324;2023-12-04T03:38:12;12;9;
71858;PMS5003;59713;50.866;4.324;2023-12-04T03:38:12;12;9;
71858;PMS5003;59713;50.866;4.324;2023-12-04T03:39:12;12;9;
71858;PMS5003;59713;50.866;4.324;2023-12-04T03:40:12;12;9;
71858;PMS5003;59713;50.866;4.324;2023-12-04T03:41:13;10;10;
71858;PMS5003;59713;50.866;4.324;2023-12-04T03:42:12;10;10;
71858;PMS5003;59713;50.866;4.324;2023-12-04T03:43:12;10;10;
71858;PMS5003;59713;50.866;4.324;2023-12-04T03:44:12;11;9;
71858;PMS5003;59713;50.866;4.324;2023-12-04T03:45:12;11;9;
71858;PMS5003;59713;50.866;4.324;2023-12-04T03:46:12;11;9;
71858;PMS5003;59713;50.866;4.324;2023-12-04T03:47:12;10;8;
71858;PMS5003;59713;50.866;4.324;2023-12-04T03:47:12;10;8;
71858;PMS5003;59713;50.866;4.324;2023-12-04T03:48:12;10;8;
71858;PMS5003;59713;50.866;4.324;2023-12-04T03:49:12;10;8;
71858;PMS5003;59713;50.866;4.324;2023-12-04T03:50:12;12;12;
71858;PMS5003;59713;50.866;4.324;2023-12-04T03:51:12;12;12;
71858;PMS5003;59713;50.866;4.324;2023-12-04T03:52:12;12;12;
71858;PMS5003;59713;50.866;4.324;2023-12-04T03:53:12;8;5;
71858;PMS5003;59713;50.866;4.324;2023-12-04T03:54:12;8;5;
71858;PMS5003;59713;50.866;4.324;2023-12-04T03:55:12;8;5;
71858;PMS5003;59713;50.866;4.324;2023-12-04T03:56:12;10;10;
71858;PMS5003;59713;50.866;4.324;2023-12-04T03:56:12;10;10;
71858;PMS5003;59713;50.866;4.324;2023-12-04T03:57:12;10;10;
71858;PMS5003;59713;50.866;4.324;2023-12-04T03:58:12;10;10;
71858;PMS5003;59713;50.866;4.324;2023-12-04T03:59:12;11;11;
71858;PMS5003;59713;50.866;4.324;2023-12-04T04:00:13;11;11;
71858;PMS5003;59713;50.866;4.324;2023-12-04T04:01:12;11;11;
71858;PMS5003;59713;50.866;4.324;2023-12-04T04:02:12;7;7;
71858;PMS5003;59713;50.866;4.324;2023-12-04T04:03:12;7;7;
71858;PMS5003;59713;50.866;4.324;2023-12-04T04:04:12;7;7;
71858;PMS5003;59713;50.866;4.324;2023-12-04T04:05:12;13;8;
71858;PMS5003;59713;50.866;4.324;2023-12-04T04:06:12;13;8;
71858;PMS5003;59713;50.866;4.324;2023-12-04T04:06:12;13;8;
71858;PMS5003;59713;50.866;4.324;2023-12-04T04:07:15;13;8;
71858;PMS5003;59713;50.866;4.324;2023-12-04T04:08:12;12;10;
71858;PMS5003;59713;50.866;4.324;2023-12-04T04:09:12;12;10;
71858;PMS5003;59713;50.866;4.324;2023-12-04T04:10:12;12;10;
71858;PMS5003;59713;50.866;4.324;2023-12-04T04:11:12;8;8;
71858;PMS5003;59713;50.866;4.324;2023-12-04T04:12:14;8;8;
71858;PMS5003;59713;50.866;4.324;2023-12-04T04:13:12;8;8;
71858;PMS5003;59713;50.866;4.324;2023-12-04T04:14:12;13;10;
71858;PMS5003;59713;50.866;4.324;2023-12-04T04:15:12;13;10;
71858;PMS5003;59713;50.866;4.324;2023-12-04T04:15:12;13;10;
71858;PMS5003;59713;50.866;4.324;2023-12-04T04:16:13;13;10;
71858;PMS5003;59713;50.866;4.324;2023-12-04T04:17:12;10;7;
71858;PMS5003;59713;50.866;4.324;2023-12-04T04:18:12;10;7;
71858;PMS5003;59713;50.866;4.324;2023-12-04T04:19:12;10;7;
71858;PMS5003;59713;50.866;4.324;2023-12-04T04:20:12;10;7;
71858;PMS5003;59713;50.866;4.324;2023-12-04T04:21:12;10;7;
71858;PMS5003;59713;50.866;4.324;2023-12-04T04:22:12;10;7;
71858;PMS5003;59713;50.866;4.324;2023-12-04T04:23:12;10;8;
71858;PMS5003;59713;50.866;4.324;2023-12-04T04:24:12;10;8;
71858;PMS5003;59713;50.866;4.324;2023-12-04T04:25:13;10;8;
71858;PMS5003;59713;50.866;4.324;2023-12-04T04:25:13;10;8;
71858;PMS5003;59713;50.866;4.324;2023-12-04T04:26:12;8;8;
71858;PMS5003;59713;50.866;4.324;2023-12-04T04:27:12;8;8;
71858;PMS5003;59713;50.866;4.324;2023-12-04T04:28:12;8;8;
71858;PMS5003;59713;50.866;4.324;2023-12-04T04:29:12;12;9;
71858;PMS5003;59713;50.866;4.324;2023-12-04T04:30:13;12;9;
71858;PMS5003;59713;50.866;4.324;2023-12-04T04:31:12;12;9;
71858;PMS5003;59713;50.866;4.324;2023-12-04T04:32:12;13;12;
71858;PMS5003;59713;50.866;4.324;2023-12-04T04:33:12;13;12;
71858;PMS5003;59713;50.866;4.324;2023-12-04T04:34:12;13;12;
71858;PMS5003;59713;50.866;4.324;2023-12-04T04:35:12;9;8;
71858;PMS5003;59713;50.866;4.324;2023-12-04T04:36:12;9;8;
71858;PMS5003;59713;50.866;4.324;2023-12-04T04:37:12;9;8;
71858;PMS5003;59713;50.866;4.324;2023-12-04T04:38:12;11;10;
71858;PMS5003;59713;50.866;4.324;2023-12-04T04:39:13;11;10;
71858;PMS5003;59713;50.866;4.324;2023-12-04T04:40:13;11;10;
71858;PMS5003;59713;50.866;4.324;2023-12-04T04:41:13;13;13;
71858;PMS5003;59713;50.866;4.324;2023-12-04T04:42:13;13;13;
71858;PMS5003;59713;50.866;4.324;2023-12-04T04:43:12;13;13;
71858;PMS5003;59713;50.866;4.324;2023-12-04T04:43:12;13;13;
71858;PMS5003;59713;50.866;4.324;2023-12-04T04:44:12;14;11;
71858;PMS5003;59713;50.866;4.324;2023-12-04T04:45:12;14;11;
71858;PMS5003;59713;50.866;4.324;2023-12-04T04:46:12;14;11;
71858;PMS5003;59713;50.866;4.324;2023-12-04T04:47:12;9;7;
71858;PMS5003;59713;50.866;4.324;2023-12-04T04:48:12;9;7;
71858;PMS5003;59713;50.866;4.324;2023-12-04T04:49:12;9;7;
71858;PMS5003;59713;50.866;4.324;2023-12-04T04:50:13;12;11;
71858;PMS5003;59713;50.866;4.324;2023-12-04T04:51:12;12;11;
71858;PMS5003;59713;50.866;4.324;2023-12-04T04:52:12;12;11;
71858;PMS5003;59713;50.866;4.324;2023-12-04T04:52:12;12;11;
71858;PMS5003;59713;50.866;4.324;2023-12-04T04:53:13;12;8;
71858;PMS5003;59713;50.866;4.324;2023-12-04T04:54:12;12;8;
71858;PMS5003;59713;50.866;4.324;2023-12-04T04:55:13;12;8;
71858;PMS5003;59713;50.866;4.324;2023-12-04T04:56:12;15;10;
71858;PMS5003;59713;50.866;4.324;2023-12-04T04:57:12;15;10;
71858;PMS5003;59713;50.866;4.324;2023-12-04T04:58:12;15;10;
71858;PMS5003;59713;50.866;4.324;2023-12-04T04:59:12;13;8;
71858;PMS5003;59713;50.866;4.324;2023-12-04T05:00:13;13;8;
71858;PMS5003;59713;50.866;4.324;2023-12-04T05:01:12;13;8;
71858;PMS5003;59713;50.866;4.324;2023-12-04T05:01:12;13;8;
71858;PMS5003;59713;50.866;4.324;2023-12-04T05:02:12;7;7;
71858;PMS5003;59713;50.866;4.324;2023-12-04T05:03:12;7;7;
71858;PMS5003;59713;50.866;4.324;2023-12-04T05:04:12;7;7;
71858;PMS5003;59713;50.866;4.324;2023-12-04T05:05:12;9;6;
71858;PMS5003;59713;50.866;4.324;2023-12-04T05:06:13;9;6;
71858;PMS5003;59713;50.866;4.324;2023-12-04T05:07:13;9;6;
71858;PMS5003;59713;50.866;4.324;2023-12-04T05:08:12;10;10;
71858;PMS5003;59713;50.866;4.324;2023-12-04T05:09:12;10;10;
71858;PMS5003;59713;50.866;4.324;2023-12-04T05:10:13;10;10;
71858;PMS5003;59713;50.866;4.324;2023-12-04T05:10:13;10;10;
71858;PMS5003;59713;50.866;4.324;2023-12-04T05:11:14;12;10;
71858;PMS5003;59713;50.866;4.324;2023-12-04T05:12:13;12;10;
71858;PMS5003;59713;50.866;4.324;2023-12-04T05:13:12;12;10;
71858;PMS5003;59713;50.866;4.324;2023-12-04T05:14:12;13;10;
71858;PMS5003;59713;50.866;4.324;2023-12-04T05:15:13;13;10;
71858;PMS5003;59713;50.866;4.324;2023-12-04T05:16:13;13;10;
71858;PMS5003;59713;50.866;4.324;2023-12-04T05:17:12;11;9;
71858;PMS5003;59713;50.866;4.324;2023-12-04T05:18:13;11;9;
71858;PMS5003;59713;50.866;4.324;2023-12-04T05:19:13;11;9;
71858;PMS5003;59713;50.866;4.324;2023-12-04T05:19:13;11;9;
71858;PMS5003;59713;50.866;4.324;2023-12-04T05:20:13;10;9;
71858;PMS5003;59713;50.866;4.324;2023-12-04T05:21:13;10;9;
71858;PMS5003;59713;50.866;4.324;2023-12-04T05:22:13;10;9;
71858;PMS5003;59713;50.866;4.324;2023-12-04T05:23:13;11;9;
71858;PMS5003;59713;50.866;4.324;2023-12-04T05:24:13;11;9;
71858;PMS5003;59713;50.866;4.324;2023-12-04T05:25:13;11;9;
71858;PMS5003;59713;50.866;4.324;2023-12-04T05:26:13;10;8;
71858;PMS5003;59713;50.866;4.324;2023-12-04T05:27:13;10;8;
71858;PMS5003;59713;50.866;4.324;2023-12-04T05:28:13;10;8;
71858;PMS5003;59713;50.866;4.324;2023-12-04T05:28:13;10;8;
71858;PMS5003;59713;50.866;4.324;2023-12-04T05:29:13;12;12;
71858;PMS5003;59713;50.866;4.324;2023-12-04T05:30:13;12;12;
71858;PMS5003;59713;50.866;4.324;2023-12-04T05:31:13;12;12;
71858;PMS5003;59713;50.866;4.324;2023-12-04T05:32:13;10;8;
71858;PMS5003;59713;50.866;4.324;2023-12-04T05:33:13;10;8;
71858;PMS5003;59713;50.866;4.324;2023-12-04T05:34:13;10;8;
71858;PMS5003;59713;50.866;4.324;2023-12-04T05:35:14;9;9;
71858;PMS5003;59713;50.866;4.324;2023-12-04T05:36:13;9;9;
71858;PMS5003;59713;50.866;4.324;2023-12-04T05:37:13;9;9;
71858;PMS5003;59713;50.866;4.324;2023-12-04T05:38:13;7;7;
71858;PMS5003;59713;50.866;4.324;2023-12-04T05:39:13;7;7;
71858;PMS5003;59713;50.866;4.324;2023-12-04T05:40:13;7;7;
71858;PMS5003;59713;50.866;4.324;2023-12-04T05:41:13;9;8;
71858;PMS5003;59713;50.866;4.324;2023-12-04T05:42:13;9;8;
71858;PMS5003;59713;50.866;4.324;2023-12-04T05:43:13;9;8;
71858;PMS5003;59713;50.866;4.324;2023-12-04T05:44:13;7;7;
71858;PMS5003;59713;50.866;4.324;2023-12-04T05:45:13;7;7;
71858;PMS5003;59713;50.866;4.324;2023-12-04T05:46:13;7;7;
71858;PMS5003;59713;50.866;4.324;2023-12-04T05:46:13;7;7;
71858;PMS5003;59713;50.866;4.324;2023-12-04T05:47:13;13;10;
71858;PMS5003;59713;50.866;4.324;2023-12-04T05:48:13;13;10;
71858;PMS5003;59713;50.866;4.324;2023-12-04T05:49:13;13;10;
71858;PMS5003;59713;50.866;4.324;2023-12-04T05:50:13;6;6;
71858;PMS5003;59713;50.866;4.324;2023-12-04T05:51:13;6;6;
71858;PMS5003;59713;50.866;4.324;2023-12-04T05:52:13;6;6;
71858;PMS5003;59713;50.866;4.324;2023-12-04T05:53:13;11;9;
71858;PMS5003;59713;50.866;4.324;2023-12-04T05:54:13;11;9;
71858;PMS5003;59713;50.866;4.324;2023-12-04T05:55:13;11;9;
71858;PMS5003;59713;50.866;4.324;2023-12-04T05:55:13;11;9;
71858;PMS5003;59713;50.866;4.324;2023-12-04T05:56:13;8;8;
71858;PMS5003;59713;50.866;4.324;2023-12-04T05:57:13;8;8;
71858;PMS5003;59713;50.866;4.324;2023-12-04T05:58:13;8;8;
71858;PMS5003;59713;50.866;4.324;2023-12-04T05:59:13;7;7;
71858;PMS5003;59713;50.866;4.324;2023-12-04T06:00:13;7;7;
71858;PMS5003;59713;50.866;4.324;2023-12-04T06:01:14;7;7;
71858;PMS5003;59713;50.866;4.324;2023-12-04T06:02:13;10;8;
71858;PMS5003;59713;50.866;4.324;2023-12-04T06:03:13;10;8;
71858;PMS5003;59713;50.866;4.324;2023-12-04T06:04:13;10;8;
71858;PMS5003;59713;50.866;4.324;2023-12-04T06:04:13;10;8;
71858;PMS5003;59713;50.866;4.324;2023-12-04T06:05:13;9;7;
71858;PMS5003;59713;50.866;4.324;2023-12-04T06:06:13;9;7;
71858;PMS5003;59713;50.866;4.324;2023-12-04T06:07:13;9;7;
71858;PMS5003;59713;50.866;4.324;2023-12-04T06:08:13;11;11;
71858;PMS5003;59713;50.866;4.324;2023-12-04T06:09:13;11;11;
71858;PMS5003;59713;50.866;4.324;2023-12-04T06:10:13;11;11;
71858;PMS5003;59713;50.866;4.324;2023-12-04T06:11:13;7;7;
71858;PMS5003;59713;50.866;4.324;2023-12-04T06:12:13;7;7;
71858;PMS5003;59713;50.866;4.324;2023-12-04T06:13:13;7;7;
71858;PMS5003;59713;50.866;4.324;2023-12-04T06:13:13;7;7;
71858;PMS5003;59713;50.866;4.324;2023-12-04T06:14:13;11;8;
71858;PMS5003;59713;50.866;4.324;2023-12-04T06:15:13;11;8;
71858;PMS5003;59713;50.866;4.324;2023-12-04T06:16:13;11;8;
71858;PMS5003;59713;50.866;4.324;2023-12-04T06:17:13;12;10;
71858;PMS5003;59713;50.866;4.324;2023-12-04T06:18:13;12;10;
71858;PMS5003;59713;50.866;4.324;2023-12-04T06:19:13;12;10;
71858;PMS5003;59713;50.866;4.324;2023-12-04T06:20:13;9;9;
71858;PMS5003;59713;50.866;4.324;2023-12-04T06:21:13;9;9;
71858;PMS5003;59713;50.866;4.324;2023-12-04T06:22:13;9;9;
71858;PMS5003;59713;50.866;4.324;2023-12-04T06:23:13;9;8;
71858;PMS5003;59713;50.866;4.324;2023-12-04T06:23:13;9;8;
71858;PMS5003;59713;50.866;4.324;2023-12-04T06:24:13;9;8;
71858;PMS5003;59713;50.866;4.324;2023-12-04T06:25:13;9;8;